Terminal Aerodrome Forecast
Issued by NWS

Home | Current Version | Previous Version | Text Only | Print | Product List | Glossary On
Versions: 1 2 3 4 5 6 7 8 9 10 11 12 13 14 15 16 17
000
FTUS45 KCYS 251120
TAFLAR
TAF
KLAR 251120Z 2512/2612 23006KT P6SM VCSH BKN100
     FM251800 26015KT P6SM VCTS SCT060 BKN110CB
     FM260500 19005KT P6SM VCSH BKN080
     FM260600 16005KT P6SM SCT070=

USA.gov is the U.S. government's official web portal to all federal, state and local government web resources and services.